Flight Track Log - Related Links

Times and Time Zones

All times are in EDT time to prevent confusion due to time zone crossing. See the CMF4MT flight status page for this flight to view local times or setup timezone preferences in your user account.

Time Position Orientation Groundspeed Altitude Reporting Facility
EDT Latitude Longitude Course Direction KTS MPH feet Rate Location/Type
Sat 01:37:04 PM 29.6769 -93.1764 266° West 155 178 4,000  Level Houston Center
Sat 01:38:06 PM 29.6778 -93.2247 271° West 153 176 4,000  Level Houston Center
Sat 01:39:08 PM 29.6786 -93.2742 271° West 153 176 4,000  Level Houston Center
Sat 01:40:10 PM 29.6789 -93.3217 270° West 152 175 4,000  Level Houston Center
Sat 01:41:10 PM 29.6803 -93.3750 272° West 155 178 4,000 48 Level Houston Center
Sat 01:42:00 PM 29.7680 -93.5232 266° West  Level Estimated
Sat 01:42:14 PM 29.6822 -93.4194 273° West 152 175 4,100  Level Houston Center
Sat 01:42:36 PM 29.6814 -93.4447 268° West 151 174 4,100  Level Houston Center
Sat 01:43:16 PM 29.6814 -93.4689 270° West 153 176 4,100  Level Houston Center
Sat 01:43:37 PM 29.6803 -93.4953 267° West 152 175 4,100  Level Houston Center
Sat 01:44:18 PM 29.6797 -93.5275 269° West 153 176 4,100  Level Houston Center
Sat 01:44:38 PM 29.6811 -93.5433 276° West 153 176 4,100 -97 Level Houston Center
Sat 01:45:20 PM 29.6817 -93.5764 271° West 153 176 4,000 -98 Descending Houston Center
Sat 01:45:39 PM 29.6822 -93.5939 272° West 153 176 4,000  Level Houston Center
Sat 01:46:22 PM 29.6828 -93.6239 271° West 151 174 4,000  Level Houston Center
Sat 01:46:40 PM 29.6817 -93.6469 267° West 154 177 4,000  Level Houston Center
Sat 01:47:24 PM 29.6797 -93.6722 265° West 151 174 4,000  Level Houston Center
Sat 01:48:26 PM 29.6764 -93.7206 265° West 151 174 4,000  Level Houston Center
Sat 01:49:28 PM 29.6750 -93.7706 268° West 154 177 4,000  Level Houston Center
Sat 01:50:30 PM 29.6731 -93.8278 268° West 151 174 4,000  Level Houston Center
Sat 01:51:32 PM 29.6703 -93.8756 266° West 151 174 4,000  Level Houston Center
Sat 01:52:34 PM 29.6697 -93.9233 269° West 150 173 4,000  Level Houston Center
Sat 01:53:36 PM 29.6656 -93.9711 264° West 151 174 4,000 -49 Level Houston Center
Sat 01:54:37 PM 29.6642 -94.0192 268° West 151 174 3,900  Descending Houston Center
Sat 01:55:45 PM 29.6611 -94.0806 267° West 152 175 4,000  Climbing Houston Center
Sat 01:56:41 PM 29.6594 -94.1272 268° West 152 175 3,900  Descending Houston Center
Sat 01:57:48 PM 29.6567 -94.1822 267° West 153 176 4,000 48 Climbing Houston Center
Sat 01:58:45 PM 29.6567 -94.2189 270° West 155 178 4,000  Level Houston Center
Sat 01:59:47 PM 29.6514 -94.2758 264° West 151 174 4,000  Level Houston Center
Sat 02:00:49 PM 29.6511 -94.3239 270° West 150 173 4,000  Level Houston Center
Sat 02:01:51 PM 29.6486 -94.3717 267° West 151 174 4,000  Level Houston Center
Sat 02:02:53 PM 29.6461 -94.4203 267° West 152 175 4,000  Level Houston Center
Sat 02:03:55 PM 29.6439 -94.4694 267° West 155 178 4,000  Level Houston Center
Sat 02:04:57 PM 29.6414 -94.5169 267° West 151 174 4,000  Level Houston Center
Sat 02:06:03 PM 29.6394 -94.5792 268° West 151 174 4,000  Level Houston Center
Sat 02:07:01 PM 29.6364 -94.6222 265° West 151 174 4,000  Level Houston Center
Sat 02:08:00 PM 29.6336 -94.6714 266° West 151 174 4,000  Level Houston Center
Sat 02:09:01 PM 29.6303 -94.7222 266° West 149 171 4,000 -142 Level Houston Center
Sat 02:10:07 PM 29.6272 -94.7647 265° West 147 169 3,700 -234 Descending Houston Center
Sat 02:11:09 PM 29.6250 -94.8142 267° West 150 173 3,500 -339 Descending Houston Center
Sat 02:12:11 PM 29.6236 -94.8725 268° West 152 175 3,000 -242 Descending Houston Center
Sat 02:13:13 PM 29.6208 -94.9206 266° West 152 175 3,000 -103 Level Houston Center
Sat 02:14:08 PM 29.6178 -94.9667 266° West 143 165 2,800 -273 Descending Houston Center
Sat 02:15:03 PM 29.6156 -95.0103 267° West 148 170 2,500 -321 Descending Houston Center
Sat 02:16:19 PM 29.6136 -95.0608 267° West 148 170 2,100 -293 Descending Houston Center
Sat 02:17:06 PM 29.6119 -95.1044 267° West 147 169 1,900 -290 Descending Houston Center
Sat 02:17:21 PM 29.6122 -95.1089 274° West 150 173 1,800  Descending Houston Center
Sat 02:18:23 PM 29.6558 -95.1294 338° Northwest 147 169 1,900 -212 Climbing Houston Center
Sat 02:19:14 PM 29.6575 -95.1639 273° West 116 133 1,400 -726 Descending Houston Center
Sat 02:20:27 PM 29.6306 -95.1644 181° South 105 121 400 -578 Descending Houston Center
Sat 02:21:29 PM 29.6058 -95.1631 177° South 93 107 100 -290 Descending Houston Center

Login

Don't have an account? Register now (free) for customized features, flight alerts, and more!